sensor_id;sensor_type;location;lat;lon;timestamp;P1;durP1;ratioP1;P2;durP2;ratioP2
75189;SDS011;69198;44.694;37.790;2023-09-08T00:00:02;5.00;;;1.73;;
75189;SDS011;69198;44.694;37.790;2023-09-08T00:01:04;6.60;;;2.40;;
75189;SDS011;69198;44.694;37.790;2023-09-08T00:02:06;7.90;;;2.28;;
75189;SDS011;69198;44.694;37.790;2023-09-08T00:03:07;6.97;;;2.10;;
75189;SDS011;69198;44.694;37.790;2023-09-08T00:04:08;7.35;;;2.20;;
75189;SDS011;69198;44.694;37.790;2023-09-08T00:05:09;7.25;;;2.30;;
75189;SDS011;69198;44.694;37.790;2023-09-08T00:06:11;7.57;;;1.73;;
75189;SDS011;69198;44.694;37.790;2023-09-08T00:07:11;7.17;;;2.10;;
75189;SDS011;69198;44.694;37.790;2023-09-08T00:08:12;6.27;;;2.07;;
75189;SDS011;69198;44.694;37.790;2023-09-08T00:09:13;11.60;;;2.25;;
75189;SDS011;69198;44.694;37.790;2023-09-08T00:10:14;7.07;;;2.38;;
75189;SDS011;69198;44.694;37.790;2023-09-08T00:11:15;6.38;;;1.98;;
75189;SDS011;69198;44.694;37.790;2023-09-08T00:12:17;7.90;;;1.98;;
75189;SDS011;69198;44.694;37.790;2023-09-08T00:13:18;8.32;;;2.03;;
75189;SDS011;69198;44.694;37.790;2023-09-08T00:14:19;5.90;;;1.70;;
75189;SDS011;69198;44.694;37.790;2023-09-08T00:15:20;9.57;;;2.40;;
75189;SDS011;69198;44.694;37.790;2023-09-08T00:16:21;7.63;;;2.27;;
75189;SDS011;69198;44.694;37.790;2023-09-08T00:17:23;9.88;;;2.10;;
75189;SDS011;69198;44.694;37.790;2023-09-08T00:18:24;5.25;;;1.63;;
75189;SDS011;69198;44.694;37.790;2023-09-08T00:19:25;8.95;;;2.00;;
75189;SDS011;69198;44.694;37.790;2023-09-08T00:20:26;5.65;;;1.65;;
75189;SDS011;69198;44.694;37.790;2023-09-08T00:21:27;5.57;;;1.90;;
75189;SDS011;69198;44.694;37.790;2023-09-08T00:22:28;6.35;;;1.90;;
75189;SDS011;69198;44.694;37.790;2023-09-08T00:23:29;8.02;;;2.00;;
75189;SDS011;69198;44.694;37.790;2023-09-08T00:24:30;6.30;;;1.93;;
75189;SDS011;69198;44.694;37.790;2023-09-08T00:25:31;6.40;;;1.75;;
75189;SDS011;69198;44.694;37.790;2023-09-08T00:26:32;6.25;;;1.70;;
75189;SDS011;69198;44.694;37.790;2023-09-08T00:27:33;6.55;;;1.50;;
75189;SDS011;69198;44.694;37.790;2023-09-08T00:28:34;7.20;;;2.10;;
75189;SDS011;69198;44.694;37.790;2023-09-08T00:29:35;5.68;;;1.80;;
75189;SDS011;69198;44.694;37.790;2023-09-08T00:30:37;5.75;;;1.52;;
75189;SDS011;69198;44.694;37.790;2023-09-08T00:31:38;5.77;;;1.80;;
75189;SDS011;69198;44.694;37.790;2023-09-08T00:32:39;8.95;;;1.92;;
75189;SDS011;69198;44.694;37.790;2023-09-08T00:33:40;6.70;;;2.10;;
75189;SDS011;69198;44.694;37.790;2023-09-08T00:34:44;6.20;;;1.73;;
75189;SDS011;69198;44.694;37.790;2023-09-08T00:35:48;7.07;;;1.48;;
75189;SDS011;69198;44.694;37.790;2023-09-08T00:36:49;5.18;;;1.60;;
75189;SDS011;69198;44.694;37.790;2023-09-08T00:37:51;10.10;;;2.15;;
75189;SDS011;69198;44.694;37.790;2023-09-08T00:38:52;7.35;;;1.83;;
75189;SDS011;69198;44.694;37.790;2023-09-08T00:39:53;8.05;;;1.50;;
75189;SDS011;69198;44.694;37.790;2023-09-08T00:40:54;5.80;;;1.73;;
75189;SDS011;69198;44.694;37.790;2023-09-08T00:41:55;6.40;;;1.70;;
75189;SDS011;69198;44.694;37.790;2023-09-08T00:42:57;6.13;;;1.58;;
75189;SDS011;69198;44.694;37.790;2023-09-08T00:43:58;6.85;;;1.67;;
75189;SDS011;69198;44.694;37.790;2023-09-08T00:44:59;5.95;;;1.77;;
75189;SDS011;69198;44.694;37.790;2023-09-08T00:46:00;7.22;;;2.03;;
75189;SDS011;69198;44.694;37.790;2023-09-08T00:47:03;7.85;;;1.45;;
75189;SDS011;69198;44.694;37.790;2023-09-08T00:48:04;6.13;;;1.77;;
75189;SDS011;69198;44.694;37.790;2023-09-08T00:49:06;5.40;;;1.50;;
75189;SDS011;69198;44.694;37.790;2023-09-08T00:50:09;6.97;;;1.55;;
75189;SDS011;69198;44.694;37.790;2023-09-08T00:51:10;6.88;;;1.42;;
75189;SDS011;69198;44.694;37.790;2023-09-08T00:52:11;6.93;;;1.70;;
75189;SDS011;69198;44.694;37.790;2023-09-08T00:53:12;5.47;;;1.40;;
75189;SDS011;69198;44.694;37.790;2023-09-08T00:54:14;5.13;;;1.30;;
75189;SDS011;69198;44.694;37.790;2023-09-08T00:55:15;7.00;;;1.67;;
75189;SDS011;69198;44.694;37.790;2023-09-08T00:56:17;5.22;;;1.40;;
75189;SDS011;69198;44.694;37.790;2023-09-08T00:57:18;5.35;;;1.50;;
75189;SDS011;69198;44.694;37.790;2023-09-08T00:58:20;6.32;;;2.13;;
75189;SDS011;69198;44.694;37.790;2023-09-08T00:59:21;6.57;;;1.40;;
75189;SDS011;69198;44.694;37.790;2023-09-08T01:00:22;8.20;;;1.33;;
75189;SDS011;69198;44.694;37.790;2023-09-08T01:01:23;5.53;;;1.60;;
75189;SDS011;69198;44.694;37.790;2023-09-08T01:02:24;5.93;;;1.42;;
75189;SDS011;69198;44.694;37.790;2023-09-08T01:03:25;5.55;;;1.55;;
75189;SDS011;69198;44.694;37.790;2023-09-08T01:04:26;5.22;;;1.20;;
75189;SDS011;69198;44.694;37.790;2023-09-08T01:05:27;4.70;;;1.30;;
75189;SDS011;69198;44.694;37.790;2023-09-08T01:06:29;5.20;;;1.35;;
75189;SDS011;69198;44.694;37.790;2023-09-08T01:07:33;7.73;;;1.53;;
75189;SDS011;69198;44.694;37.790;2023-09-08T01:08:34;4.95;;;1.30;;
75189;SDS011;69198;44.694;37.790;2023-09-08T01:09:37;6.82;;;1.10;;
75189;SDS011;69198;44.694;37.790;2023-09-08T01:10:38;4.90;;;0.95;;
75189;SDS011;69198;44.694;37.790;2023-09-08T01:11:42;5.80;;;1.70;;
75189;SDS011;69198;44.694;37.790;2023-09-08T01:12:43;4.40;;;1.30;;
75189;SDS011;69198;44.694;37.790;2023-09-08T01:13:44;6.68;;;1.40;;
75189;SDS011;69198;44.694;37.790;2023-09-08T01:14:45;4.40;;;1.23;;
75189;SDS011;69198;44.694;37.790;2023-09-08T01:15:46;5.67;;;1.20;;
75189;SDS011;69198;44.694;37.790;2023-09-08T01:16:48;8.00;;;1.48;;
75189;SDS011;69198;44.694;37.790;2023-09-08T01:17:49;7.07;;;1.13;;
75189;SDS011;69198;44.694;37.790;2023-09-08T01:18:50;5.05;;;1.30;;
75189;SDS011;69198;44.694;37.790;2023-09-08T01:19:54;5.25;;;1.50;;
75189;SDS011;69198;44.694;37.790;2023-09-08T01:21:12;5.68;;;1.48;;
75189;SDS011;69198;44.694;37.790;2023-09-08T01:25:32;5.35;;;1.40;;
75189;SDS011;69198;44.694;37.790;2023-09-08T01:26:36;5.45;;;1.20;;
75189;SDS011;69198;44.694;37.790;2023-09-08T01:27:43;5.47;;;1.20;;
75189;SDS011;69198;44.694;37.790;2023-09-08T01:28:55;5.82;;;1.33;;
75189;SDS011;69198;44.694;37.790;2023-09-08T01:29:57;8.15;;;1.67;;
75189;SDS011;69198;44.694;37.790;2023-09-08T01:31:00;6.63;;;1.30;;
75189;SDS011;69198;44.694;37.790;2023-09-08T01:32:01;7.22;;;1.27;;
75189;SDS011;69198;44.694;37.790;2023-09-08T01:33:04;5.53;;;1.20;;
75189;SDS011;69198;44.694;37.790;2023-09-08T01:34:05;6.03;;;1.63;;
75189;SDS011;69198;44.694;37.790;2023-09-08T01:35:08;6.80;;;1.20;;
75189;SDS011;69198;44.694;37.790;2023-09-08T01:36:10;5.47;;;1.25;;
75189;SDS011;69198;44.694;37.790;2023-09-08T01:37:11;6.65;;;1.25;;
75189;SDS011;69198;44.694;37.790;2023-09-08T01:38:12;4.83;;;1.10;;
75189;SDS011;69198;44.694;37.790;2023-09-08T01:39:13;6.80;;;1.50;;
75189;SDS011;69198;44.694;37.790;2023-09-08T01:40:14;6.32;;;1.55;;
75189;SDS011;69198;44.694;37.790;2023-09-08T01:41:16;4.82;;;1.40;;
75189;SDS011;69198;44.694;37.790;2023-09-08T01:42:17;8.20;;;1.40;;
75189;SDS011;69198;44.694;37.790;2023-09-08T01:43:19;5.53;;;1.30;;
75189;SDS011;69198;44.694;37.790;2023-09-08T01:44:20;4.70;;;0.90;;
75189;SDS011;69198;44.694;37.790;2023-09-08T01:45:21;5.53;;;0.97;;
75189;SDS011;69198;44.694;37.790;2023-09-08T01:46:22;5.57;;;1.20;;
75189;SDS011;69198;44.694;37.790;2023-09-08T01:47:23;5.55;;;0.80;;
75189;SDS011;69198;44.694;37.790;2023-09-08T01:48:24;7.00;;;1.00;;
75189;SDS011;69198;44.694;37.790;2023-09-08T01:49:25;4.32;;;1.17;;
75189;SDS011;69198;44.694;37.790;2023-09-08T01:50:25;4.50;;;1.10;;
75189;SDS011;69198;44.694;37.790;2023-09-08T01:51:27;4.35;;;0.90;;
75189;SDS011;69198;44.694;37.790;2023-09-08T01:52:28;5.78;;;1.35;;
75189;SDS011;69198;44.694;37.790;2023-09-08T01:53:29;3.80;;;1.03;;
75189;SDS011;69198;44.694;37.790;2023-09-08T01:54:30;5.20;;;0.85;;
75189;SDS011;69198;44.694;37.790;2023-09-08T01:55:31;4.50;;;1.10;;
75189;SDS011;69198;44.694;37.790;2023-09-08T01:56:31;5.40;;;0.65;;
75189;SDS011;69198;44.694;37.790;2023-09-08T01:57:32;5.25;;;1.10;;
75189;SDS011;69198;44.694;37.790;2023-09-08T01:58:34;5.05;;;0.68;;
75189;SDS011;69198;44.694;37.790;2023-09-08T01:59:35;5.38;;;0.95;;
75189;SDS011;69198;44.694;37.790;2023-09-08T02:00:38;4.70;;;0.90;;
75189;SDS011;69198;44.694;37.790;2023-09-08T02:01:40;5.70;;;1.00;;
75189;SDS011;69198;44.694;37.790;2023-09-08T02:02:42;5.45;;;0.90;;
75189;SDS011;69198;44.694;37.790;2023-09-08T02:03:43;5.30;;;1.13;;
75189;SDS011;69198;44.694;37.790;2023-09-08T02:04:44;4.97;;;1.10;;
75189;SDS011;69198;44.694;37.790;2023-09-08T02:05:45;4.72;;;0.80;;
75189;SDS011;69198;44.694;37.790;2023-09-08T02:06:46;6.20;;;1.02;;
75189;SDS011;69198;44.694;37.790;2023-09-08T02:07:47;5.00;;;1.05;;
75189;SDS011;69198;44.694;37.790;2023-09-08T02:08:48;4.73;;;1.33;;
75189;SDS011;69198;44.694;37.790;2023-09-08T02:09:49;5.18;;;0.80;;
75189;SDS011;69198;44.694;37.790;2023-09-08T02:10:50;5.45;;;1.10;;
75189;SDS011;69198;44.694;37.790;2023-09-08T02:11:51;4.43;;;1.00;;
75189;SDS011;69198;44.694;37.790;2023-09-08T02:12:52;4.68;;;1.00;;
75189;SDS011;69198;44.694;37.790;2023-09-08T02:13:53;4.68;;;0.85;;
75189;SDS011;69198;44.694;37.790;2023-09-08T02:14:54;5.38;;;1.00;;
75189;SDS011;69198;44.694;37.790;2023-09-08T02:15:55;5.38;;;1.10;;
75189;SDS011;69198;44.694;37.790;2023-09-08T02:16:57;7.27;;;1.40;;
75189;SDS011;69198;44.694;37.790;2023-09-08T02:17:58;4.50;;;0.88;;
75189;SDS011;69198;44.694;37.790;2023-09-08T02:18:59;4.95;;;1.30;;
75189;SDS011;69198;44.694;37.790;2023-09-08T02:20:01;3.67;;;0.70;;
75189;SDS011;69198;44.694;37.790;2023-09-08T02:21:02;3.50;;;0.80;;
75189;SDS011;69198;44.694;37.790;2023-09-08T02:22:03;4.60;;;0.60;;
75189;SDS011;69198;44.694;37.790;2023-09-08T02:23:05;4.00;;;0.73;;
75189;SDS011;69198;44.694;37.790;2023-09-08T02:24:07;4.65;;;0.80;;
75189;SDS011;69198;44.694;37.790;2023-09-08T02:25:10;5.75;;;0.80;;
75189;SDS011;69198;44.694;37.790;2023-09-08T02:26:11;4.30;;;0.73;;
75189;SDS011;69198;44.694;37.790;2023-09-08T02:27:12;6.70;;;1.13;;
75189;SDS011;69198;44.694;37.790;2023-09-08T02:28:14;5.30;;;1.00;;
75189;SDS011;69198;44.694;37.790;2023-09-08T02:29:15;4.57;;;0.98;;
75189;SDS011;69198;44.694;37.790;2023-09-08T02:30:16;4.63;;;0.90;;
75189;SDS011;69198;44.694;37.790;2023-09-08T02:31:17;4.85;;;0.85;;
75189;SDS011;69198;44.694;37.790;2023-09-08T02:32:18;4.32;;;0.80;;
75189;SDS011;69198;44.694;37.790;2023-09-08T02:33:20;4.60;;;0.93;;
75189;SDS011;69198;44.694;37.790;2023-09-08T02:34:21;4.80;;;0.90;;
75189;SDS011;69198;44.694;37.790;2023-09-08T02:35:25;4.03;;;0.73;;
75189;SDS011;69198;44.694;37.790;2023-09-08T02:36:28;3.35;;;0.82;;
75189;SDS011;69198;44.694;37.790;2023-09-08T02:37:30;3.90;;;0.87;;
75189;SDS011;69198;44.694;37.790;2023-09-08T02:38:32;4.22;;;0.88;;
75189;SDS011;69198;44.694;37.790;2023-09-08T02:39:33;4.75;;;0.80;;
75189;SDS011;69198;44.694;37.790;2023-09-08T02:40:34;6.55;;;1.20;;
75189;SDS011;69198;44.694;37.790;2023-09-08T02:41:36;4.70;;;0.95;;
75189;SDS011;69198;44.694;37.790;2023-09-08T02:42:37;5.85;;;0.93;;
75189;SDS011;69198;44.694;37.790;2023-09-08T02:43:38;4.65;;;0.90;;
75189;SDS011;69198;44.694;37.790;2023-09-08T02:44:39;5.03;;;1.05;;
75189;SDS011;69198;44.694;37.790;2023-09-08T02:45:40;4.33;;;0.70;;
75189;SDS011;69198;44.694;37.790;2023-09-08T02:46:41;3.90;;;0.80;;
75189;SDS011;69198;44.694;37.790;2023-09-08T02:47:41;5.22;;;0.90;;
75189;SDS011;69198;44.694;37.790;2023-09-08T02:48:43;5.75;;;0.82;;
75189;SDS011;69198;44.694;37.790;2023-09-08T02:49:43;4.78;;;0.80;;
75189;SDS011;69198;44.694;37.790;2023-09-08T02:50:45;4.60;;;0.70;;
75189;SDS011;69198;44.694;37.790;2023-09-08T02:51:46;4.53;;;0.80;;
75189;SDS011;69198;44.694;37.790;2023-09-08T02:52:47;5.57;;;0.80;;
75189;SDS011;69198;44.694;37.790;2023-09-08T02:53:48;7.37;;;1.13;;
75189;SDS011;69198;44.694;37.790;2023-09-08T02:54:49;4.32;;;0.70;;
75189;SDS011;69198;44.694;37.790;2023-09-08T02:55:50;6.25;;;0.93;;
75189;SDS011;69198;44.694;37.790;2023-09-08T02:56:51;4.03;;;0.70;;
75189;SDS011;69198;44.694;37.790;2023-09-08T02:57:52;4.18;;;0.82;;
75189;SDS011;69198;44.694;37.790;2023-09-08T02:58:53;5.45;;;0.98;;
75189;SDS011;69198;44.694;37.790;2023-09-08T02:59:55;4.75;;;0.90;;
75189;SDS011;69198;44.694;37.790;2023-09-08T03:00:56;4.45;;;0.70;;
75189;SDS011;69198;44.694;37.790;2023-09-08T03:01:58;5.03;;;0.73;;
75189;SDS011;69198;44.694;37.790;2023-09-08T03:03:00;6.28;;;0.93;;
75189;SDS011;69198;44.694;37.790;2023-09-08T03:04:01;4.68;;;0.90;;
75189;SDS011;69198;44.694;37.790;2023-09-08T03:05:03;5.15;;;0.82;;
75189;SDS011;69198;44.694;37.790;2023-09-08T03:06:05;3.58;;;0.68;;
75189;SDS011;69198;44.694;37.790;2023-09-08T03:07:06;5.47;;;0.80;;
75189;SDS011;69198;44.694;37.790;2023-09-08T03:08:07;6.05;;;0.77;;
75189;SDS011;69198;44.694;37.790;2023-09-08T03:09:08;4.57;;;1.02;;
75189;SDS011;69198;44.694;37.790;2023-09-08T03:10:09;4.73;;;1.10;;
75189;SDS011;69198;44.694;37.790;2023-09-08T03:11:12;4.47;;;0.98;;
75189;SDS011;69198;44.694;37.790;2023-09-08T03:12:14;4.07;;;0.95;;
75189;SDS011;69198;44.694;37.790;2023-09-08T03:13:15;4.88;;;0.63;;
75189;SDS011;69198;44.694;37.790;2023-09-08T03:14:17;7.85;;;0.80;;
75189;SDS011;69198;44.694;37.790;2023-09-08T03:15:20;4.78;;;0.70;;
75189;SDS011;69198;44.694;37.790;2023-09-08T03:16:21;4.47;;;0.88;;
75189;SDS011;69198;44.694;37.790;2023-09-08T03:17:22;4.65;;;0.70;;
75189;SDS011;69198;44.694;37.790;2023-09-08T03:18:23;3.67;;;0.68;;
75189;SDS011;69198;44.694;37.790;2023-09-08T03:19:24;6.33;;;0.73;;
75189;SDS011;69198;44.694;37.790;2023-09-08T03:20:25;4.93;;;1.00;;
75189;SDS011;69198;44.694;37.790;2023-09-08T03:21:26;5.03;;;0.90;;
75189;SDS011;69198;44.694;37.790;2023-09-08T03:22:27;5.55;;;1.13;;
75189;SDS011;69198;44.694;37.790;2023-09-08T03:23:28;6.18;;;0.90;;
75189;SDS011;69198;44.694;37.790;2023-09-08T03:24:30;5.40;;;0.88;;
75189;SDS011;69198;44.694;37.790;2023-09-08T03:25:31;6.57;;;0.80;;
75189;SDS011;69198;44.694;37.790;2023-09-08T03:26:33;5.32;;;0.93;;
75189;SDS011;69198;44.694;37.790;2023-09-08T03:27:34;4.63;;;1.10;;
75189;SDS011;69198;44.694;37.790;2023-09-08T03:28:35;5.03;;;0.85;;
75189;SDS011;69198;44.694;37.790;2023-09-08T03:29:37;5.68;;;1.02;;
75189;SDS011;69198;44.694;37.790;2023-09-08T03:30:38;6.30;;;0.90;;
75189;SDS011;69198;44.694;37.790;2023-09-08T03:31:39;4.75;;;0.75;;
75189;SDS011;69198;44.694;37.790;2023-09-08T03:32:41;6.65;;;1.38;;
75189;SDS011;69198;44.694;37.790;2023-09-08T03:33:42;10.02;;;1.10;;
75189;SDS011;69198;44.694;37.790;2023-09-08T03:34:43;4.93;;;0.88;;
75189;SDS011;69198;44.694;37.790;2023-09-08T03:35:44;4.30;;;0.80;;
75189;SDS011;69198;44.694;37.790;2023-09-08T03:36:45;4.38;;;0.93;;
75189;SDS011;69198;44.694;37.790;2023-09-08T03:37:46;4.38;;;0.90;;
75189;SDS011;69198;44.694;37.790;2023-09-08T03:38:47;5.20;;;1.08;;
75189;SDS011;69198;44.694;37.790;2023-09-08T03:39:48;5.50;;;0.90;;
75189;SDS011;69198;44.694;37.790;2023-09-08T03:40:49;4.57;;;0.70;;
75189;SDS011;69198;44.694;37.790;2023-09-08T03:41:50;3.92;;;0.77;;
75189;SDS011;69198;44.694;37.790;2023-09-08T03:42:51;4.70;;;0.90;;
75189;SDS011;69198;44.694;37.790;2023-09-08T03:43:53;6.17;;;1.10;;
75189;SDS011;69198;44.694;37.790;2023-09-08T03:44:54;6.22;;;0.98;;
75189;SDS011;69198;44.694;37.790;2023-09-08T03:45:56;5.85;;;1.00;;
75189;SDS011;69198;44.694;37.790;2023-09-08T03:46:57;4.22;;;0.80;;
75189;SDS011;69198;44.694;37.790;2023-09-08T03:47:58;4.97;;;0.80;;
75189;SDS011;69198;44.694;37.790;2023-09-08T03:48:59;4.78;;;0.98;;
75189;SDS011;69198;44.694;37.790;2023-09-08T03:50:01;4.28;;;0.77;;
75189;SDS011;69198;44.694;37.790;2023-09-08T03:51:02;8.10;;;0.90;;
75189;SDS011;69198;44.694;37.790;2023-09-08T03:52:03;5.63;;;0.70;;
75189;SDS011;69198;44.694;37.790;2023-09-08T03:53:05;4.43;;;0.70;;
75189;SDS011;69198;44.694;37.790;2023-09-08T03:54:06;6.30;;;0.93;;
75189;SDS011;69198;44.694;37.790;2023-09-08T03:55:08;3.90;;;0.65;;
75189;SDS011;69198;44.694;37.790;2023-09-08T03:56:09;4.05;;;0.75;;
75189;SDS011;69198;44.694;37.790;2023-09-08T03:57:10;4.85;;;0.75;;
75189;SDS011;69198;44.694;37.790;2023-09-08T03:58:11;4.20;;;0.77;;
75189;SDS011;69198;44.694;37.790;2023-09-08T03:59:12;4.97;;;0.80;;
75189;SDS011;69198;44.694;37.790;2023-09-08T04:00:13;6.18;;;0.93;;
75189;SDS011;69198;44.694;37.790;2023-09-08T04:01:22;5.78;;;0.90;;
75189;SDS011;69198;44.694;37.790;2023-09-08T04:02:23;5.30;;;1.00;;
75189;SDS011;69198;44.694;37.790;2023-09-08T04:03:24;4.95;;;0.90;;
75189;SDS011;69198;44.694;37.790;2023-09-08T04:04:26;3.67;;;0.60;;
75189;SDS011;69198;44.694;37.790;2023-09-08T04:05:27;4.82;;;0.68;;
75189;SDS011;69198;44.694;37.790;2023-09-08T04:06:28;3.97;;;0.57;;
75189;SDS011;69198;44.694;37.790;2023-09-08T04:07:29;4.53;;;0.87;;
75189;SDS011;69198;44.694;37.790;2023-09-08T04:08:30;5.22;;;1.15;;
75189;SDS011;69198;44.694;37.790;2023-09-08T04:09:31;4.82;;;1.00;;
75189;SDS011;69198;44.694;37.790;2023-09-08T04:10:32;5.82;;;0.98;;
75189;SDS011;69198;44.694;37.790;2023-09-08T04:11:33;4.45;;;0.82;;
75189;SDS011;69198;44.694;37.790;2023-09-08T04:12:34;5.28;;;1.20;;
75189;SDS011;69198;44.694;37.790;2023-09-08T04:13:35;6.38;;;1.10;;
75189;SDS011;69198;44.694;37.790;2023-09-08T04:14:36;4.67;;;0.80;;
75189;SDS011;69198;44.694;37.790;2023-09-08T04:15:37;3.83;;;0.80;;
75189;SDS011;69198;44.694;37.790;2023-09-08T04:16:39;4.18;;;0.90;;
75189;SDS011;69198;44.694;37.790;2023-09-08T04:17:40;4.30;;;0.70;;
75189;SDS011;69198;44.694;37.790;2023-09-08T04:18:41;5.57;;;0.90;;
75189;SDS011;69198;44.694;37.790;2023-09-08T04:19:43;7.32;;;0.80;;
75189;SDS011;69198;44.694;37.790;2023-09-08T04:20:44;5.22;;;0.98;;
75189;SDS011;69198;44.694;37.790;2023-09-08T04:21:45;4.85;;;1.08;;
75189;SDS011;69198;44.694;37.790;2023-09-08T04:22:46;4.20;;;1.00;;
75189;SDS011;69198;44.694;37.790;2023-09-08T04:23:47;5.80;;;1.10;;
75189;SDS011;69198;44.694;37.790;2023-09-08T04:24:49;6.65;;;1.20;;
75189;SDS011;69198;44.694;37.790;2023-09-08T04:25:50;6.55;;;1.13;;
75189;SDS011;69198;44.694;37.790;2023-09-08T04:26:51;4.63;;;0.90;;
75189;SDS011;69198;44.694;37.790;2023-09-08T04:27:52;4.70;;;0.90;;
75189;SDS011;69198;44.694;37.790;2023-09-08T04:28:53;5.68;;;1.00;;
75189;SDS011;69198;44.694;37.790;2023-09-08T04:29:54;5.65;;;1.08;;
75189;SDS011;69198;44.694;37.790;2023-09-08T04:30:55;5.28;;;0.90;;
75189;SDS011;69198;44.694;37.790;2023-09-08T04:31:57;4.50;;;0.93;;
75189;SDS011;69198;44.694;37.790;2023-09-08T04:32:58;4.97;;;0.98;;
75189;SDS011;69198;44.694;37.790;2023-09-08T04:34:02;4.60;;;1.05;;
75189;SDS011;69198;44.694;37.790;2023-09-08T04:35:03;4.45;;;1.20;;
75189;SDS011;69198;44.694;37.790;2023-09-08T04:36:04;5.18;;;0.80;;
75189;SDS011;69198;44.694;37.790;2023-09-08T04:37:05;4.55;;;0.80;;
75189;SDS011;69198;44.694;37.790;2023-09-08T04:38:09;6.05;;;1.00;;
75189;SDS011;69198;44.694;37.790;2023-09-08T04:39:11;5.10;;;1.05;;
75189;SDS011;69198;44.694;37.790;2023-09-08T04:40:13;5.93;;;1.10;;
75189;SDS011;69198;44.694;37.790;2023-09-08T04:41:15;5.10;;;0.80;;
75189;SDS011;69198;44.694;37.790;2023-09-08T04:42:16;3.93;;;1.10;;
75189;SDS011;69198;44.694;37.790;2023-09-08T04:43:17;5.40;;;1.10;;
75189;SDS011;69198;44.694;37.790;2023-09-08T04:44:18;5.90;;;1.00;;
75189;SDS011;69198;44.694;37.790;2023-09-08T04:45:19;4.63;;;1.23;;
75189;SDS011;69198;44.694;37.790;2023-09-08T04:46:20;6.70;;;1.00;;
75189;SDS011;69198;44.694;37.790;2023-09-08T04:47:21;4.47;;;1.17;;
75189;SDS011;69198;44.694;37.790;2023-09-08T04:48:22;4.15;;;1.00;;
75189;SDS011;69198;44.694;37.790;2023-09-08T04:49:23;7.88;;;2.03;;
75189;SDS011;69198;44.694;37.790;2023-09-08T04:50:25;3.63;;;0.60;;
75189;SDS011;69198;44.694;37.790;2023-09-08T04:51:27;5.87;;;0.90;;
75189;SDS011;69198;44.694;37.790;2023-09-08T04:52:27;5.40;;;1.00;;
75189;SDS011;69198;44.694;37.790;2023-09-08T04:53:29;3.90;;;0.73;;
75189;SDS011;69198;44.694;37.790;2023-09-08T04:54:30;6.80;;;1.30;;
75189;SDS011;69198;44.694;37.790;2023-09-08T04:55:32;4.85;;;1.20;;
75189;SDS011;69198;44.694;37.790;2023-09-08T04:56:33;4.72;;;1.20;;
75189;SDS011;69198;44.694;37.790;2023-09-08T04:57:34;5.05;;;1.10;;
75189;SDS011;69198;44.694;37.790;2023-09-08T04:58:35;5.30;;;1.30;;
75189;SDS011;69198;44.694;37.790;2023-09-08T04:59:36;4.85;;;1.17;;
75189;SDS011;69198;44.694;37.790;2023-09-08T05:00:40;5.53;;;1.10;;
75189;SDS011;69198;44.694;37.790;2023-09-08T05:01:41;4.88;;;0.98;;
75189;SDS011;69198;44.694;37.790;2023-09-08T05:02:44;5.38;;;1.13;;
75189;SDS011;69198;44.694;37.790;2023-09-08T05:03:45;4.93;;;1.10;;
75189;SDS011;69198;44.694;37.790;2023-09-08T05:04:47;4.70;;;1.45;;
75189;SDS011;69198;44.694;37.790;2023-09-08T05:05:48;5.10;;;1.13;;
75189;SDS011;69198;44.694;37.790;2023-09-08T05:06:49;6.10;;;1.40;;
75189;SDS011;69198;44.694;37.790;2023-09-08T05:07:52;5.35;;;1.10;;
75189;SDS011;69198;44.694;37.790;2023-09-08T05:08:57;3.72;;;0.80;;
75189;SDS011;69198;44.694;37.790;2023-09-08T05:10:00;4.35;;;0.82;;
75189;SDS011;69198;44.694;37.790;2023-09-08T05:11:05;5.33;;;0.97;;
75189;SDS011;69198;44.694;37.790;2023-09-08T05:12:06;5.05;;;1.15;;
75189;SDS011;69198;44.694;37.790;2023-09-08T05:13:09;6.15;;;1.15;;
75189;SDS011;69198;44.694;37.790;2023-09-08T05:14:11;6.32;;;1.20;;
75189;SDS011;69198;44.694;37.790;2023-09-08T05:15:12;3.38;;;0.65;;
75189;SDS011;69198;44.694;37.790;2023-09-08T05:16:18;5.00;;;0.95;;
75189;SDS011;69198;44.694;37.790;2023-09-08T05:17:26;3.83;;;0.90;;
75189;SDS011;69198;44.694;37.790;2023-09-08T05:18:27;5.45;;;1.20;;
75189;SDS011;69198;44.694;37.790;2023-09-08T05:19:29;4.60;;;0.90;;
75189;SDS011;69198;44.694;37.790;2023-09-08T05:20:31;4.88;;;1.10;;
75189;SDS011;69198;44.694;37.790;2023-09-08T05:21:34;5.00;;;0.90;;
75189;SDS011;69198;44.694;37.790;2023-09-08T05:22:38;4.15;;;0.80;;
75189;SDS011;69198;44.694;37.790;2023-09-08T05:23:40;4.72;;;0.88;;
75189;SDS011;69198;44.694;37.790;2023-09-08T05:24:42;5.07;;;1.00;;
75189;SDS011;69198;44.694;37.790;2023-09-08T05:25:44;4.88;;;0.80;;
75189;SDS011;69198;44.694;37.790;2023-09-08T05:26:45;4.55;;;0.90;;
75189;SDS011;69198;44.694;37.790;2023-09-08T05:27:46;4.45;;;0.85;;
75189;SDS011;69198;44.694;37.790;2023-09-08T05:28:47;5.10;;;1.25;;
75189;SDS011;69198;44.694;37.790;2023-09-08T05:29:48;5.97;;;0.93;;
75189;SDS011;69198;44.694;37.790;2023-09-08T05:30:53;3.58;;;0.82;;
75189;SDS011;69198;44.694;37.790;2023-09-08T05:31:55;4.30;;;1.00;;
75189;SDS011;69198;44.694;37.790;2023-09-08T05:32:58;5.13;;;0.90;;
75189;SDS011;69198;44.694;37.790;2023-09-08T05:33:59;4.47;;;1.10;;
75189;SDS011;69198;44.694;37.790;2023-09-08T05:35:01;4.82;;;1.00;;
75189;SDS011;69198;44.694;37.790;2023-09-08T05:36:03;5.28;;;0.93;;
75189;SDS011;69198;44.694;37.790;2023-09-08T05:37:04;6.38;;;0.90;;
75189;SDS011;69198;44.694;37.790;2023-09-08T05:38:06;6.15;;;0.93;;
75189;SDS011;69198;44.694;37.790;2023-09-08T05:39:07;4.22;;;0.80;;
75189;SDS011;69198;44.694;37.790;2023-09-08T05:40:09;4.22;;;0.98;;
75189;SDS011;69198;44.694;37.790;2023-09-08T05:41:10;4.20;;;0.88;;
75189;SDS011;69198;44.694;37.790;2023-09-08T05:42:11;4.50;;;0.90;;
75189;SDS011;69198;44.694;37.790;2023-09-08T05:43:13;4.78;;;0.82;;
75189;SDS011;69198;44.694;37.790;2023-09-08T05:44:14;2.95;;;0.60;;
75189;SDS011;69198;44.694;37.790;2023-09-08T05:45:15;4.07;;;0.90;;
75189;SDS011;69198;44.694;37.790;2023-09-08T05:46:16;4.15;;;0.88;;
75189;SDS011;69198;44.694;37.790;2023-09-08T05:47:19;4.63;;;0.82;;
75189;SDS011;69198;44.694;37.790;2023-09-08T05:48:20;4.90;;;1.10;;
75189;SDS011;69198;44.694;37.790;2023-09-08T05:49:21;4.70;;;1.02;;
75189;SDS011;69198;44.694;37.790;2023-09-08T05:50:22;6.55;;;1.10;;
75189;SDS011;69198;44.694;37.790;2023-09-08T05:51:24;5.22;;;1.10;;
75189;SDS011;69198;44.694;37.790;2023-09-08T05:52:27;2.93;;;0.53;;
75189;SDS011;69198;44.694;37.790;2023-09-08T05:53:29;3.97;;;0.75;;
75189;SDS011;69198;44.694;37.790;2023-09-08T05:54:30;5.35;;;0.77;;
75189;SDS011;69198;44.694;37.790;2023-09-08T05:55:31;4.80;;;1.02;;
75189;SDS011;69198;44.694;37.790;2023-09-08T05:56:33;5.07;;;0.90;;
75189;SDS011;69198;44.694;37.790;2023-09-08T05:57:34;4.95;;;0.80;;
75189;SDS011;69198;44.694;37.790;2023-09-08T05:58:35;5.55;;;0.90;;
75189;SDS011;69198;44.694;37.790;2023-09-08T05:59:37;4.28;;;0.88;;
75189;SDS011;69198;44.694;37.790;2023-09-08T06:00:38;5.90;;;0.98;;
75189;SDS011;69198;44.694;37.790;2023-09-08T06:01:39;5.75;;;0.93;;
75189;SDS011;69198;44.694;37.790;2023-09-08T06:02:43;3.97;;;0.83;;
75189;SDS011;69198;44.694;37.790;2023-09-08T06:03:47;3.45;;;0.63;;
75189;SDS011;69198;44.694;37.790;2023-09-08T06:04:48;5.60;;;1.30;;
75189;SDS011;69198;44.694;37.790;2023-09-08T06:05:50;4.65;;;0.80;;
75189;SDS011;69198;44.694;37.790;2023-09-08T06:06:51;7.53;;;1.50;;
75189;SDS011;69198;44.694;37.790;2023-09-08T06:07:52;6.00;;;1.08;;